• Join FlightAware (Why Join?)
  • Login
  • US Flag 
09:17AM EDT


 

Airport Tracker/Info


-or-


 

Live Flight TrackerFlight Track Log ✈ PDT4207 ✈ 06-Nov-2013 ✈ KPHL - KBGM

Flight Track Log - Related Links

Times and Time Zones

All times are in EST time to prevent confusion due to time zone crossing. See the PDT4207 flight status page for this flight to view local times or setup timezone preferences in your user account.

Time Position Orientation Groundspeed Altitude Reporting Facility
EST Latitude Longitude Course Direction KTS MPH feet Rate Location/Type
09:31PM 39.9000 -75.2500 311° West 125 144 600  Level Philadelphia TRACON
09:32PM 39.9333 -75.3000 311° West 140 161 3,100 1,680 Climbing Philadelphia TRACON
09:33PM 39.9500 -75.3333 303° West 131 151 4,600 1,620 Climbing Philadelphia TRACON
09:34PM 40.1725 -75.3329 311° West  Level Estimated
09:34PM 39.9667 -75.3833 294° West 120 138 6,200  Level Philadelphia TRACON
09:35PM 40.2079 -75.4225 297° West  Level FlightAware Approximate
09:35PM 39.9833 -75.4333 294° West 120 138 7,900  Level Philadelphia TRACON
09:36PM 40.2834 -75.4430 311° West  Level Estimated
09:36PM 40.0000 -75.4333 360° North 198 228 8,600  Level Philadelphia TRACON
09:37PM 40.0667 -75.4833 330° Northwest 209 241 9,000 360 Climbing Philadelphia TRACON
09:39PM 40.1392 -75.5142 342° North 241 277 9,600 480 Climbing New York Center
09:40PM 40.1964 -75.5400 341° North 223 257 10,100 600 Climbing New York Center
09:41PM 40.2558 -75.5631 344° North 223 257 10,900 420 Climbing New York Center
09:42PM 40.3181 -75.5728 353° North 218 251 11,000  Climbing New York Center
09:43PM 40.3839 -75.5911 348° North 232 267 11,000  Level New York Center
09:44PM 40.4392 -75.6167 341° North 238 274 11,000  Level New York Center
09:45PM 40.5075 -75.6297 352° North 238 274 11,000  Level New York Center
09:46PM 40.5864 -75.6353 357° North 243 280 11,000  Level New York Center
09:47PM 40.6569 -75.6403 357° North 248 285 11,000  Level New York Center
09:48PM 40.7250 -75.6561 350° North 255 293 11,000  Level New York Center
09:49PM 40.7867 -75.6769 346° North 255 293 11,000  Level New York Center
09:50PM 40.8550 -75.6928 350° North 250 288 11,000  Level New York Center
09:51PM 40.9317 -75.7011 355° North 255 293 11,000  Level New York Center
09:52PM 40.9894 -75.7136 351° North 255 293 11,000 -60 Level New York Center
09:53PM 41.0639 -75.7300 351° North 255 293 10,900 -240 Descending New York Center
09:54PM 41.1400 -75.7494 349° North 255 293 10,600 -480 Descending New York Center
09:55PM 41.2144 -75.7631 352° North 262 302 10,000 -300 Descending New York Center
09:56PM 41.2867 -75.7767 352° North 262 302 10,000  Level New York Center
09:57PM 41.3525 -75.7983 346° North 262 302 10,000  Level New York Center
09:58PM 41.4225 -75.8200 347° North 256 295 10,000 -480 Level New York Center
09:59PM 41.4947 -75.8339 352° North 256 295 9,100 -1,020 Descending New York Center
10:00PM 41.5631 -75.8444 353° North 256 295 8,000 -1,080 Descending New York Center
10:01PM 41.6331 -75.8608 350° North 256 295 7,000 -960 Descending New York Center
10:02PM 41.6969 -75.8769 349° North 256 295 6,100 -540 Descending New York Center
10:03PM 41.7692 -75.8908 352° North 256 295 6,000 -60 Descending New York Center
10:04PM 41.8436 -75.9050 352° North 256 295 6,000 -60 Level New York Center
10:05PM 41.9133 -75.9269 347° North 251 289 5,900 -600 Descending New York Center
10:06PM 41.9858 -75.9411 352° North 256 295 4,900 -900 Descending New York Center
10:07PM 42.0436 -75.9483 355° North 256 295 4,100 -540 Descending New York Center
10:08PM 42.1114 -75.9733 345° North 243 280 3,900 -240 Descending New York Center
10:09PM 42.1572 -76.0189 324° Northwest 218 251 3,700 -300 Descending New York Center
10:10PM 42.2058 -76.0478 336° Northwest 205 236 3,300 -300 Descending New York Center
10:11PM 42.2514 -76.0517 356° North 189 217 3,200 -360 Descending New York Center
10:12PM 42.2489 -76.0150 95° East 80 92 2,600 -540 Descending New York Center
10:13PM 42.2356 -75.9886 124° Southeast 68 78 2,200 -420 Descending New York Center